Time;durP1;ratioP1;P1;durP2;ratioP2;P2;SDS_P1;SDS_P2;PMS_P1;PMS_P2;Temp;Humidity;BMP_temperature;BMP_pressure;BME280_temperature;BME280_humidity;BME280_pressure;Samples;Min_cycle;Max_cycle;Signal;HPM_P1;HPM_P2
2020/12/31 00:01:22;;;;;;;7.20;1.63;;;281.90;2099.20;;;;;;5098857;28;20032;-63
2020/12/31 00:03:48;;;;;;;8.00;1.38;;;281.80;2099.20;;;;;;5099360;28;20027;-62
2020/12/31 00:06:14;;;;;;;10.07;2.08;;;281.90;2073.60;;;;;;5099039;28;20436;-63
2020/12/31 00:08:40;;;;;;;4.82;1.52;;;281.90;2073.60;;;;;;5099297;28;20397;-63
2020/12/31 00:11:06;;;;;;;7.35;2.25;;;281.80;2099.20;;;;;;5099492;28;20039;-62
2020/12/31 00:13:32;;;;;;;5.90;1.70;;;281.70;2124.80;;;;;;5098900;28;20377;-65
2020/12/31 00:15:58;;;;;;;8.30;1.40;;;281.80;2099.20;;;;;;5099357;28;20028;-62
2020/12/31 00:18:24;;;;;;;6.93;1.50;;;281.90;2073.60;;;;;;5099326;28;20030;-63
2020/12/31 00:20:50;;;;;;;8.55;1.83;;;281.90;2073.60;;;;;;5098711;28;20048;-62
2020/12/31 00:23:16;;;;;;;9.80;1.95;;;282.00;2073.60;;;;;;5098954;28;20024;-61
2020/12/31 00:25:48;;;;;;;8.10;1.70;;;281.90;2073.60;;;;;;5099215;28;20103;-61
2020/12/31 00:28:15;;;;;;;10.23;1.80;;;281.80;2073.60;;;;;;5098657;28;20028;-64
2020/12/31 00:30:41;;;;;;;10.13;2.15;;;281.70;2099.20;;;;;;5099110;28;20027;-63
2020/12/31 00:33:08;;;;;;;6.50;1.85;;;281.80;2073.60;;;;;;5098643;28;20044;-62
2020/12/31 00:35:34;;;;;;;13.93;3.65;;;281.90;2073.60;;;;;;5098738;28;20020;-63
2020/12/31 00:37:59;;;;;;;18.38;4.72;;;281.80;2073.60;;;;;;5098663;28;20028;-62
2020/12/31 00:40:25;;;;;;;9.90;3.83;;;281.70;2099.20;;;;;;5098548;28;20058;-64
2020/12/31 00:42:51;;;;;;;10.70;2.20;;;281.70;2124.80;;;;;;5098608;28;20032;-65
2020/12/31 00:45:16;;;;;;;10.07;1.77;;;281.90;2073.60;;;;;;5098547;28;20024;-63
2020/12/31 00:47:42;;;;;;;20.25;2.55;;;281.90;2073.60;;;;;;5098802;28;20111;-65
2020/12/31 00:50:08;;;;;;;8.70;1.98;;;281.90;2073.60;;;;;;5097871;28;20028;-62
2020/12/31 00:52:34;;;;;;;17.33;2.25;;;281.90;2048.00;;;;;;5098426;28;20032;-64
2020/12/31 00:54:59;;;;;;;10.70;1.83;;;281.90;2048.00;;;;;;5098374;28;20444;-62
2020/12/31 00:57:25;;;;;;;9.27;1.88;;;282.00;2048.00;;;;;;5097997;28;20325;-65
2020/12/31 00:59:51;;;;;;;7.28;1.77;;;282.10;2022.40;;;;;;5098252;28;20020;-62
2020/12/31 01:02:17;;;;;;;14.35;1.90;;;282.00;2073.60;;;;;;5098253;28;20032;-64
2020/12/31 01:04:42;;;;;;;9.25;1.90;;;282.00;2048.00;;;;;;5098500;28;20020;-62
2020/12/31 01:07:08;;;;;;;8.13;1.90;;;282.10;2048.00;;;;;;5097903;28;20035;-63
2020/12/31 01:09:34;;;;;;;15.05;2.03;;;282.10;2048.00;;;;;;5097851;28;20052;-63
2020/12/31 01:11:59;;;;;;;9.77;1.77;;;282.10;2048.00;;;;;;5098381;28;20064;-63
2020/12/31 01:14:25;;;;;;;12.90;2.20;;;282.10;2048.00;;;;;;5098326;28;20020;-62
2020/12/31 01:16:51;;;;;;;8.98;2.00;;;282.10;2048.00;;;;;;5097457;28;20049;-63
2020/12/31 01:19:17;;;;;;;14.43;2.05;;;282.10;2048.00;;;;;;5097935;28;20429;-61
2020/12/31 01:21:46;;;;;;;9.45;2.45;;;282.00;2073.60;;;;;;5097906;28;20329;-62
2020/12/31 01:24:13;;;;;;;9.20;2.05;;;282.10;2073.60;;;;;;5097603;28;20024;-63
2020/12/31 01:26:39;;;;;;;13.00;2.17;;;282.10;2048.00;;;;;;5097548;28;20381;-66
2020/12/31 01:29:05;;;;;;;12.70;2.40;;;282.10;2048.00;;;;;;5097542;28;20050;-64
2020/12/31 01:31:32;;;;;;;7.20;2.03;;;282.10;2048.00;;;;;;5097194;28;20073;-62
2020/12/31 01:33:58;;;;;;;11.90;2.20;;;282.20;2048.00;;;;;;5098357;28;20044;-63
2020/12/31 01:36:24;;;;;;;10.68;2.15;;;282.30;2048.00;;;;;;5097964;28;20031;-63
2020/12/31 01:38:51;;;;;;;11.10;2.75;;;282.20;2048.00;;;;;;5097675;28;20077;-62
2020/12/31 01:41:23;;;;;;;11.75;2.58;;;282.10;2073.60;;;;;;5097563;28;20028;-62
2020/12/31 01:44:09;;;;;;;14.40;2.38;;;282.10;2073.60;;;;;;5097895;28;20119;-61
2020/12/31 01:46:40;;;;;;;9.77;2.72;;;282.10;2073.60;;;;;;5097520;28;20023;-62
2020/12/31 01:49:08;;;;;;;11.52;2.72;;;282.10;2073.60;;;;;;5097770;28;20077;-61
2020/12/31 01:51:39;;;;;;;8.02;1.95;;;282.10;2073.60;;;;;;5097538;28;20079;-63
2020/12/31 01:54:05;;;;;;;10.13;2.58;;;282.10;2073.60;;;;;;5097524;28;20028;-64
2020/12/31 01:56:33;;;;;;;9.50;1.90;;;282.00;2073.60;;;;;;5097727;28;20106;-62
2020/12/31 01:58:59;;;;;;;16.60;3.37;;;282.10;2073.60;;;;;;5097418;28;20020;-63
2020/12/31 02:01:26;;;;;;;11.10;2.20;;;282.00;2073.60;;;;;;5097652;28;20114;-62
2020/12/31 02:03:57;;;;;;;10.15;2.60;;;282.10;2073.60;;;;;;5097654;28;20020;-63
2020/12/31 02:06:24;;;;;;;12.35;3.15;;;282.10;2073.60;;;;;;5097371;28;20042;-64
2020/12/31 02:08:50;;;;;;;10.85;3.33;;;282.10;2099.20;;;;;;5097561;28;20028;-62
2020/12/31 02:11:18;;;;;;;9.20;2.63;;;282.00;2099.20;;;;;;5101513;28;20028;-62
2020/12/31 02:13:44;;;;;;;16.50;3.28;;;281.90;2124.80;;;;;;5101141;28;20043;-63
2020/12/31 02:16:14;;;;;;;8.98;2.40;;;281.90;2124.80;;;;;;5101440;28;20024;-62
2020/12/31 02:18:55;;;;;;;10.70;2.72;;;281.90;2099.20;;;;;;5101680;28;20024;-63
2020/12/31 02:21:29;;;;;;;9.68;2.85;;;281.90;2099.20;;;;;;5101256;28;20023;-61
2020/12/31 02:23:56;;;;;;;12.00;2.88;;;281.90;2099.20;;;;;;5101627;28;20059;-61
2020/12/31 02:26:25;;;;;;;8.90;2.22;;;281.80;2099.20;;;;;;5100994;28;20028;-61
2020/12/31 02:28:52;;;;;;;6.18;2.15;;;281.80;2073.60;;;;;;5101239;28;20027;-63
2020/12/31 02:31:18;;;;;;;8.93;2.15;;;281.90;2073.60;;;;;;5101152;28;20032;-64
2020/12/31 02:33:51;;;;;;;7.88;1.85;;;281.90;2073.60;;;;;;5101052;28;20433;-63
2020/12/31 02:36:19;;;;;;;9.48;1.95;;;282.00;2073.60;;;;;;5101384;28;20020;-62
2020/12/31 02:38:46;;;;;;;7.47;2.10;;;282.00;2048.00;;;;;;5101316;28;20028;-61
2020/12/31 02:41:12;;;;;;;15.07;3.55;;;282.10;2073.60;;;;;;5100044;28;20421;-61
2020/12/31 02:43:38;;;;;;;8.68;3.35;;;282.00;2073.60;;;;;;5100651;28;20024;-63
2020/12/31 02:46:05;;;;;;;10.52;2.65;;;282.10;2073.60;;;;;;5100584;28;20395;-62
2020/12/31 02:48:32;;;;;;;9.93;3.25;;;282.10;2048.00;;;;;;5100288;28;20031;-62
2020/12/31 02:50:57;;;;;;;18.13;3.13;;;282.00;2073.60;;;;;;5101088;28;20024;-63
2020/12/31 02:53:23;;;;;;;14.05;2.38;;;281.90;2073.60;;;;;;5101025;28;20085;-63
2020/12/31 02:55:49;;;;;;;11.05;2.50;;;281.90;2073.60;;;;;;5100422;28;20048;-62
2020/12/31 02:58:16;;;;;;;11.23;2.40;;;281.90;2073.60;;;;;;5100371;28;20027;-62
2020/12/31 03:00:42;;;;;;;12.45;2.63;;;282.00;2073.60;;;;;;5100268;28;20066;-62
2020/12/31 03:03:08;;;;;;;10.20;2.22;;;281.90;2073.60;;;;;;5100337;28;20032;-63
2020/12/31 03:05:34;;;;;;;6.68;2.40;;;282.00;2073.60;;;;;;5100544;28;20035;-62
2020/12/31 03:07:59;;;;;;;11.52;3.00;;;282.00;2099.20;;;;;;5100149;28;20024;-62
2020/12/31 03:10:25;;;;;;;12.43;3.10;;;282.00;2099.20;;;;;;5100101;28;20035;-61
2020/12/31 03:12:51;;;;;;;6.45;2.00;;;281.90;2099.20;;;;;;5100391;28;20027;-63
2020/12/31 03:15:20;;;;;;;13.07;3.22;;;281.90;2099.20;;;;;;5100343;28;20027;-63
2020/12/31 03:17:45;;;;;;;12.23;3.35;;;282.00;2073.60;;;;;;5100297;28;20310;-64
2020/12/31 03:20:11;;;;;;;12.98;2.72;;;282.00;2073.60;;;;;;5099747;28;20034;-61
2020/12/31 03:22:37;;;;;;;8.88;2.88;;;282.00;2073.60;;;;;;5098427;28;20129;-62
2020/12/31 03:25:04;;;;;;;14.27;3.33;;;281.90;2099.20;;;;;;5100160;28;20024;-63
2020/12/31 03:27:30;;;;;;;13.43;3.38;;;281.90;2099.20;;;;;;5099770;28;20028;-62
2020/12/31 03:29:56;;;;;;;11.85;3.33;;;281.80;2099.20;;;;;;5099986;28;20024;-63
2020/12/31 03:32:22;;;;;;;15.45;3.13;;;281.80;2099.20;;;;;;5098388;28;20601;-61
2020/12/31 03:34:47;;;;;;;15.00;3.30;;;281.90;2099.20;;;;;;5099960;28;20075;-62
2020/12/31 03:37:13;;;;;;;12.25;3.10;;;281.90;2099.20;;;;;;5099766;28;20031;-63
2020/12/31 03:39:41;;;;;;;13.98;3.25;;;281.90;2099.20;;;;;;5099957;28;20028;-63
2020/12/31 03:42:07;;;;;;;9.13;3.40;;;282.00;2099.20;;;;;;5099158;28;20027;-63
2020/12/31 03:44:33;;;;;;;12.00;2.42;;;281.90;2124.80;;;;;;5099769;28;20065;-64
2020/12/31 03:46:58;;;;;;;11.88;3.55;;;281.90;2124.80;;;;;;5099990;28;20024;-62
2020/12/31 03:49:24;;;;;;;11.68;2.60;;;282.00;2099.20;;;;;;5099731;28;20036;-63
2020/12/31 03:51:50;;;;;;;7.97;2.67;;;282.00;2124.80;;;;;;5099449;28;20091;-64
2020/12/31 03:54:16;;;;;;;12.57;2.78;;;282.00;2124.80;;;;;;5099478;28;20024;-64
2020/12/31 03:56:42;;;;;;;8.85;2.78;;;281.90;2150.40;;;;;;5099339;28;20028;-63
2020/12/31 03:59:08;;;;;;;15.13;3.42;;;281.80;2176.00;;;;;;5098651;28;20027;-64
2020/12/31 04:01:34;;;;;;;11.65;2.72;;;281.60;2201.60;;;;;;5099599;28;20039;-63
2020/12/31 04:04:01;;;;;;;10.20;2.60;;;281.60;2201.60;;;;;;5099125;28;20031;-65
2020/12/31 04:06:28;;;;;;;6.80;2.60;;;281.60;2201.60;;;;;;5099347;28;20024;-64
2020/12/31 04:08:54;;;;;;;7.28;2.45;;;281.60;2227.20;;;;;;5099036;28;20032;-63
2020/12/31 04:11:20;;;;;;;9.85;2.80;;;281.60;2227.20;;;;;;5098866;28;20470;-63
2020/12/31 04:13:46;;;;;;;9.00;2.33;;;281.70;2201.60;;;;;;5099326;28;20099;-63
2020/12/31 04:16:12;;;;;;;6.70;2.30;;;281.70;2201.60;;;;;;5098616;28;20412;-63
2020/12/31 04:18:38;;;;;;;7.82;2.78;;;281.90;2176.00;;;;;;5098744;28;20024;-62
2020/12/31 04:21:04;;;;;;;7.05;2.85;;;281.80;2176.00;;;;;;5098909;28;20315;-62
2020/12/31 04:23:30;;;;;;;11.50;2.75;;;281.70;2176.00;;;;;;5098994;28;20081;-62
2020/12/31 04:25:55;;;;;;;11.20;3.10;;;256.90;2176.00;;;;;;5098689;28;20020;-62
2020/12/31 04:28:21;;;;;;;7.35;2.45;;;256.90;2201.60;;;;;;5099137;28;20032;-62
2020/12/31 04:30:48;;;;;;;15.35;3.67;;;281.70;2227.20;;;;;;5098450;28;20062;-63
2020/12/31 04:33:15;;;;;;;6.45;2.40;;;281.60;2201.60;;;;;;5097755;28;20560;-63
2020/12/31 04:35:41;;;;;;;9.45;2.53;;;281.60;2201.60;;;;;;5098753;28;20046;-62
2020/12/31 04:38:07;;;;;;;9.85;2.63;;;281.70;2176.00;;;;;;5098402;28;20418;-62
2020/12/31 04:40:33;;;;;;;9.05;3.08;;;281.70;2176.00;;;;;;5098036;28;20028;-62
2020/12/31 04:43:00;;;;;;;10.82;3.50;;;281.80;2176.00;;;;;;5098917;28;20119;-63
2020/12/31 04:45:28;;;;;;;9.43;2.83;;;281.70;2176.00;;;;;;5098780;28;20024;-64
2020/12/31 04:48:27;;;;;;;10.13;2.75;;;281.60;2201.60;;;;;;5098227;28;20020;-63
2020/12/31 04:50:56;;;;;;;6.97;2.30;;;281.60;2201.60;;;;;;5098130;28;20104;-63
2020/12/31 04:53:22;;;;;;;;;;;281.60;2176.00;;;;;;5098515;28;20035;-64
2020/12/31 04:55:48;;;;;;;8.73;3.35;;;281.60;2176.00;;;;;;5098117;28;20319;-64
2020/12/31 04:58:15;;;;;;;7.05;2.97;;;281.60;2124.80;;;;;;5098316;28;20032;-62
2020/12/31 05:00:42;;;;;;;11.43;3.00;;;281.70;2124.80;;;;;;5098089;28;20114;-64
2020/12/31 05:03:08;;;;;;;10.93;3.05;;;281.60;2150.40;;;;;;5097902;28;20492;-63
2020/12/31 05:05:36;;;;;;;5.00;2.28;;;281.70;2124.80;;;;;;5098185;28;20448;-63
2020/12/31 05:08:04;;;;;;;9.20;2.10;;;281.60;2150.40;;;;;;5097844;28;20043;-63
2020/12/31 05:10:30;;;;;;;8.65;2.15;;;281.70;2099.20;;;;;;5098122;28;20032;-62
2020/12/31 05:13:07;;;;;;;10.07;2.42;;;281.70;2124.80;;;;;;5098019;28;20024;-62
2020/12/31 05:15:41;;;;;;;5.40;2.03;;;281.70;2099.20;;;;;;5098073;28;20047;-62
2020/12/31 05:18:22;;;;;;;19.55;9.13;;;281.80;2073.60;;;;;;5098220;28;20028;-65
2020/12/31 05:20:51;;;;;;;228.40;110.15;;;281.70;2099.20;;;;;;5098162;28;20024;-63
2020/12/31 05:23:19;;;;;;;57.72;27.77;;;281.80;2073.60;;;;;;5097912;28;20024;-62
2020/12/31 05:25:45;;;;;;;91.43;44.87;;;281.80;2073.60;;;;;;5097892;28;20082;-64
2020/12/31 05:28:32;;;;;;;92.93;47.08;;;281.90;2073.60;;;;;;5097153;28;20028;-63
2020/12/31 05:30:58;;;;;;;8.95;5.80;;;281.80;2099.20;;;;;;5097978;28;20414;-62
2020/12/31 05:33:30;;;;;;;9.30;4.50;;;281.80;2048.00;;;;;;5097648;28;20354;-62
2020/12/31 05:36:19;;;;;;;10.82;4.70;;;281.80;2048.00;;;;;;5097417;28;20028;-63
2020/12/31 05:38:57;;;;;;;13.57;8.40;;;281.80;2022.40;;;;;;5097679;28;20055;-63
2020/12/31 05:41:23;;;;;;;20.75;15.45;;;281.90;1996.80;;;;;;5097534;28;20028;-62
2020/12/31 05:43:54;;;;;;;12.38;6.07;;;281.80;2022.40;;;;;;5096497;28;20039;-63
2020/12/31 05:46:20;;;;;;;11.05;6.03;;;281.80;1996.80;;;;;;5097389;28;20030;-64
2020/12/31 05:49:05;;;;;;;55.58;32.08;;;281.90;1996.80;;;;;;5097518;28;20031;-63
2020/12/31 05:51:32;;;;;;;72.88;41.67;;;281.90;1996.80;;;;;;5097489;28;20093;-66
2020/12/31 05:54:16;;;;;;;60.30;50.80;;;281.80;1996.80;;;;;;5097439;28;20024;-63
2020/12/31 05:56:44;;;;;;;27.45;14.43;;;281.80;1996.80;;;;;;5097190;28;20032;-61
2020/12/31 05:59:26;;;;;;;28.80;14.20;;;281.80;1996.80;;;;;;5097263;28;20030;-63
2020/12/31 06:01:59;;;;;;;189.75;108.90;;;281.90;1996.80;;;;;;5097323;28;20063;-63
2020/12/31 06:04:46;;;;;;;59.75;38.13;;;282.00;1971.20;;;;;;5097030;28;20024;-62
2020/12/31 06:07:32;;;;;;;45.00;29.67;;;281.90;1971.20;;;;;;5096776;28;20111;-62
2020/12/31 06:10:06;;;;;;;22.88;19.58;;;281.90;1971.20;;;;;;5097433;28;20453;-64
2020/12/31 06:12:55;;;;;;;10.60;5.20;;;282.00;1971.20;;;;;;5097562;28;20073;-62
2020/12/31 06:15:25;;;;;;;10.48;7.20;;;282.00;1971.20;;;;;;5097564;28;20023;-64
2020/12/31 06:17:52;;;;;;;9.23;6.00;;;282.00;1971.20;;;;;;5097176;28;20032;-62
2020/12/31 06:20:23;;;;;;;7.30;4.60;;;282.00;1996.80;;;;;;5097014;28;20032;-63
2020/12/31 06:23:06;;;;;;;9.57;6.85;;;281.90;2022.40;;;;;;5097164;28;20318;-66
2020/12/31 06:25:39;;;;;;;7.63;4.93;;;281.90;2022.40;;;;;;5097217;28;20031;-63
2020/12/31 06:28:15;;;;;;;10.32;3.58;;;281.80;1996.80;;;;;;5097111;28;20028;-61
2020/12/31 06:30:52;;;;;;;6.15;3.05;;;281.80;1996.80;;;;;;5096940;28;20067;-65
2020/12/31 06:33:43;;;;;;;6.97;3.65;;;281.90;1996.80;;;;;;5096873;28;20058;-63
2020/12/31 06:36:09;;;;;;;5.75;3.05;;;281.80;2022.40;;;;;;5097199;28;20035;-63
2020/12/31 06:38:40;;;;;;;6.80;3.60;;;281.80;2022.40;;;;;;5096566;28;20060;-63
2020/12/31 06:41:33;;;;;;;6.32;2.10;;;281.80;2022.40;;;;;;5096383;28;20433;-63
2020/12/31 06:44:13;;;;;;;6.85;4.13;;;281.90;2022.40;;;;;;5096464;28;20133;-62
2020/12/31 06:46:46;;;;;;;7.68;3.33;;;282.00;2022.40;;;;;;5096822;28;20436;-62
2020/12/31 06:49:12;;;;;;;11.45;9.27;;;282.00;2022.40;;;;;;5096479;28;20333;-62
2020/12/31 06:51:38;;;;;;;20.17;12.07;;;282.00;2022.40;;;;;;5096271;28;20016;-64
2020/12/31 06:54:05;;;;;;;17.98;8.82;;;282.00;2022.40;;;;;;5096299;28;20031;-63
2020/12/31 06:56:45;;;;;;;24.42;11.55;;;282.00;2022.40;;;;;;5098979;28;20356;-61
2020/12/31 06:59:28;;;;;;;18.10;11.13;;;281.90;2022.40;;;;;;5100327;28;20020;-62
2020/12/31 07:01:55;;;;;;;12.90;6.25;;;282.00;2022.40;;;;;;5100556;28;20027;-63
2020/12/31 07:04:33;;;;;;;13.73;5.30;;;282.00;2022.40;;;;;;5100571;28;20028;-63
2020/12/31 07:07:00;;;;;;;17.73;10.27;;;282.00;2022.40;;;;;;5099977;28;20398;-63
2020/12/31 07:09:37;;;;;;;13.27;4.13;;;282.00;2022.40;;;;;;5099943;28;20016;-62
2020/12/31 07:12:07;;;;;;;16.38;9.98;;;282.00;2022.40;;;;;;5099978;28;20410;-62
2020/12/31 07:14:35;;;;;;;17.27;7.63;;;281.90;2022.40;;;;;;5099895;28;20023;-61
2020/12/31 07:17:05;;;;;;;35.45;21.23;;;281.90;2048.00;;;;;;5100295;28;20020;-64
2020/12/31 07:19:36;;;;;;;27.92;17.08;;;281.80;2048.00;;;;;;5100471;28;20056;-62
2020/12/31 07:22:10;;;;;;;33.55;19.88;;;281.80;2048.00;;;;;;5100204;28;20024;-62
2020/12/31 07:24:54;;;;;;;4.75;2.58;;;281.80;2048.00;;;;;;5100208;28;20081;-64
2020/12/31 07:27:20;;;;;;;12.02;8.30;;;281.80;2048.00;;;;;;5100192;28;20048;-65
2020/12/31 07:30:15;;;;;;;22.63;11.57;;;281.70;2048.00;;;;;;5099792;28;20028;-63
2020/12/31 07:33:06;;;;;;;38.15;25.02;;;281.70;2073.60;;;;;;5076831;28;20056;-62
2020/12/31 07:35:39;;;;;;;25.75;21.02;;;281.70;2073.60;;;;;;5076929;28;20028;-63
2020/12/31 07:38:05;;;;;;;14.10;9.52;;;282.00;2048.00;;;;;;5077397;28;20031;-63
2020/12/31 07:40:32;;;;;;;12.02;8.20;;;282.10;2022.40;;;;;;5076951;28;20032;-61
2020/12/31 07:42:58;;;;;;;11.55;7.93;;;282.30;1996.80;;;;;;5076398;28;20032;-63
2020/12/31 07:45:25;;;;;;;6.63;2.47;;;282.50;1971.20;;;;;;5077047;28;20028;-62
2020/12/31 07:47:52;;;;;;;8.65;2.92;;;307.30;1945.60;;;;;;5077282;28;20032;-63
2020/12/31 07:50:19;;;;;;;9.90;2.97;;;307.40;1971.20;;;;;;5076861;28;20169;-62
2020/12/31 07:52:45;;;;;;;9.75;2.45;;;307.50;1945.60;;;;;;5076871;28;20024;-61
2020/12/31 07:55:11;;;;;;;7.15;2.67;;;307.70;1920.00;;;;;;5076695;28;20036;-64
2020/12/31 07:57:38;;;;;;;7.07;2.78;;;307.80;1894.40;;;;;;5077020;28;20036;-62
2020/12/31 08:00:11;;;;;;;8.02;2.67;;;307.90;1868.80;;;;;;5077078;28;20067;-63
2020/12/31 08:02:43;;;;;;;17.40;7.70;;;308.00;1868.80;;;;;;5076728;28;20397;-62
2020/12/31 08:05:13;;;;;;;11.43;5.35;;;308.10;1868.80;;;;;;5076631;28;20028;-63
2020/12/31 08:07:40;;;;;;;5.95;2.20;;;333.00;1868.80;;;;;;5075649;28;20025;-63
2020/12/31 08:10:08;;;;;;;6.25;2.60;;;333.10;1843.20;;;;;;5097148;28;20071;-62
2020/12/31 08:12:34;;;;;;;5.18;2.50;;;333.20;1843.20;;;;;;5098849;28;20130;-62
2020/12/31 08:15:00;;;;;;;6.35;2.30;;;333.10;1843.20;;;;;;5099109;28;20028;-61
2020/12/31 08:17:26;;;;;;;18.63;10.88;;;332.90;1843.20;;;;;;5099101;28;20032;-62
2020/12/31 08:19:53;;;;;;;58.15;34.00;;;332.80;1843.20;;;;;;5099258;28;20085;-61
2020/12/31 08:22:42;;;;;;;34.45;23.13;;;308.10;1843.20;;;;;;5098992;28;20032;-63
2020/12/31 08:25:14;;;;;;;17.00;9.93;;;308.00;1843.20;;;;;;5098029;28;20405;-63
2020/12/31 08:27:41;;;;;;;38.55;24.42;;;307.90;1843.20;;;;;;5098843;28;20047;-62
2020/12/31 08:30:12;;;;;;;16.30;10.00;;;307.80;1868.80;;;;;;5098001;28;20028;-63
2020/12/31 08:32:52;;;;;;;17.17;11.57;;;307.80;1843.20;;;;;;5098152;28;20387;-62
2020/12/31 08:35:28;;;;;;;26.73;17.40;;;307.80;1868.80;;;;;;5099010;28;20077;-62
2020/12/31 08:38:11;;;;;;;18.88;14.90;;;307.70;1868.80;;;;;;5098760;28;20431;-63
2020/12/31 08:40:47;;;;;;;7.90;3.90;;;307.60;1868.80;;;;;;5098900;28;20427;-61
2020/12/31 08:43:22;;;;;;;15.60;10.00;;;307.70;1868.80;;;;;;5098616;28;20028;-62
2020/12/31 08:45:49;;;;;;;27.13;19.80;;;307.70;1868.80;;;;;;5098326;28;20020;-62
2020/12/31 08:48:17;;;;;;;19.55;12.15;;;307.80;1868.80;;;;;;5098225;28;20060;-61
2020/12/31 08:51:10;;;;;;;10.35;5.85;;;307.70;1868.80;;;;;;5098643;28;20081;-62
2020/12/31 08:53:56;;;;;;;15.88;10.20;;;307.80;1843.20;;;;;;5098438;28;20030;-63
2020/12/31 08:56:26;;;;;;;21.63;13.40;;;307.80;1843.20;;;;;;5098726;28;20031;-64
2020/12/31 08:59:06;;;;;;;14.13;6.50;;;307.80;1817.60;;;;;;5098266;28;20024;-63
2020/12/31 09:01:32;;;;;;;13.48;8.13;;;307.80;1817.60;;;;;;5097674;28;20023;-65
2020/12/31 09:04:27;;;;;;;9.07;4.45;;;307.90;1843.20;;;;;;5098140;28;20035;-62
2020/12/31 09:06:57;;;;;;;19.05;15.02;;;307.90;1843.20;;;;;;5073380;28;20039;-62
2020/12/31 09:09:28;;;;;;;23.00;15.23;;;308.00;1817.60;;;;;;5070623;28;20028;-65
2020/12/31 09:12:01;;;;;;;7.28;4.57;;;308.10;1792.00;;;;;;5070065;28;20600;-66
2020/12/31 09:14:29;;;;;;;7.82;2.90;;;332.80;1843.20;;;;;;5075464;28;20032;-65
2020/12/31 09:16:55;;;;;;;26.88;22.13;;;332.90;1817.60;;;;;;5074925;28;20485;-64
2020/12/31 09:19:21;;;;;;;5.40;2.50;;;333.20;1817.60;;;;;;5073142;28;20028;-64
2020/12/31 09:21:47;;;;;;;22.20;16.50;;;333.30;1792.00;;;;;;5072869;28;20090;-63
2020/12/31 09:24:23;;;;;;;11.70;6.10;;;333.50;1792.00;;;;;;5072814;28;20517;-66
2020/12/31 09:26:58;;;;;;;10.77;8.15;;;333.60;1766.40;;;;;;5074842;28;20107;-64
2020/12/31 09:29:25;;;;;;;44.05;35.42;;;358.40;1740.80;;;;;;5074941;28;20032;-64
2020/12/31 09:31:51;;;;;;;16.20;9.10;;;358.40;1766.40;;;;;;5074120;28;20081;-67
2020/12/31 09:34:17;;;;;;;32.58;22.30;;;358.50;1766.40;;;;;;5072517;28;20107;-63
2020/12/31 09:36:43;;;;;;;35.25;13.25;;;358.70;1766.40;;;;;;5073545;28;20040;-64
2020/12/31 09:39:09;;;;;;;19.20;12.48;;;358.90;1715.20;;;;;;5074577;28;20028;-62
2020/12/31 09:41:36;;;;;;;42.83;33.78;;;359.10;1715.20;;;;;;5072764;28;20419;-66
2020/12/31 09:44:03;;;;;;;17.00;10.85;;;359.00;1715.20;;;;;;5107999;28;20436;-64
2020/12/31 09:46:28;;;;;;;13.50;6.05;;;358.90;1689.60;;;;;;5117145;28;20035;-62
2020/12/31 09:48:55;;;;;;;19.70;11.25;;;359.00;1689.60;;;;;;5117363;28;20027;-63
2020/12/31 09:51:21;;;;;;;14.85;9.35;;;359.10;1689.60;;;;;;5118003;28;20041;-65
2020/12/31 09:53:49;;;;;;;18.08;9.15;;;359.10;1689.60;;;;;;5118035;28;20110;-66
2020/12/31 09:56:15;;;;;;;13.33;6.50;;;359.20;1689.60;;;;;;5116994;28;20034;-63
2020/12/31 09:58:41;;;;;;;14.27;7.43;;;359.00;1689.60;;;;;;5116613;28;20023;-64
2020/12/31 10:01:08;;;;;;;9.55;6.03;;;359.00;1664.00;;;;;;5113163;28;20089;-65
2020/12/31 10:03:33;;;;;;;7.00;3.15;;;358.80;1689.60;;;;;;5115257;28;20019;-64
2020/12/31 10:06:00;;;;;;;7.20;2.30;;;358.70;1689.60;;;;;;5113101;28;20037;-64
2020/12/31 10:08:26;;;;;;;18.83;6.20;;;358.50;1715.20;;;;;;5114287;28;20324;-61
2020/12/31 10:10:52;;;;;;;14.85;4.88;;;358.40;1740.80;;;;;;5115313;28;20100;-64
2020/12/31 10:13:18;;;;;;;108.50;23.30;;;333.70;1715.20;;;;;;5116476;28;20333;-64
2020/12/31 10:15:44;;;;;;;12.43;2.40;;;333.70;1740.80;;;;;;5113827;28;20027;-64
2020/12/31 10:18:10;;;;;;;13.48;5.25;;;333.40;1715.20;;;;;;5113777;28;20051;-64
2020/12/31 10:20:36;;;;;;;7.78;2.10;;;333.30;1715.20;;;;;;5114250;28;20493;-65
2020/12/31 10:23:03;;;;;;;8.13;4.80;;;333.10;1740.80;;;;;;5114490;28;20067;-65
2020/12/31 10:25:29;;;;;;;8.48;2.83;;;333.10;1740.80;;;;;;5116073;28;20041;-65
2020/12/31 10:27:55;;;;;;;7.72;2.45;;;332.90;1792.00;;;;;;5113922;28;20512;-64
2020/12/31 10:30:21;;;;;;;23.13;8.98;;;332.90;1766.40;;;;;;5116001;28;20024;-64
2020/12/31 10:32:49;;;;;;;16.90;7.70;;;332.80;1766.40;;;;;;5117538;28;20058;-65
2020/12/31 10:35:15;;;;;;;28.07;13.03;;;332.80;1792.00;;;;;;5118671;28;20032;-64
2020/12/31 10:37:41;;;;;;;9.35;2.70;;;332.90;1792.00;;;;;;5119224;28;20297;-65
2020/12/31 10:40:08;;;;;;;8.32;3.08;;;332.90;1766.40;;;;;;5120731;28;20050;-66
2020/12/31 10:42:33;;;;;;;12.18;2.33;;;333.00;1792.00;;;;;;5121290;28;20072;-65
2020/12/31 10:44:59;;;;;;;8.73;3.40;;;333.20;1740.80;;;;;;5118758;28;20027;-65
2020/12/31 10:47:26;;;;;;;9.02;3.40;;;333.40;1740.80;;;;;;5118503;27;20245;-66
2020/12/31 10:49:51;;;;;;;6.72;2.80;;;333.70;1715.20;;;;;;5119254;28;20044;-63
2020/12/31 10:52:17;;;;;;;5.60;2.80;;;358.40;1715.20;;;;;;5118541;28;20102;-64
2020/12/31 10:54:43;;;;;;;5.07;2.38;;;358.40;1689.60;;;;;;5105992;28;20031;-65
2020/12/31 10:57:10;;;;;;;8.75;4.15;;;358.40;1715.20;;;;;;5106091;28;20020;-63
2020/12/31 10:59:36;;;;;;;10.07;7.65;;;358.60;1689.60;;;;;;5112936;28;20026;-62
2020/12/31 11:02:02;;;;;;;11.52;7.88;;;358.80;1664.00;;;;;;5101473;28;20031;-64
2020/12/31 11:04:27;;;;;;;8.65;6.90;;;359.20;1612.80;;;;;;5099790;28;20028;-65
2020/12/31 11:06:53;;;;;;;10.60;7.78;;;384.20;1587.20;;;;;;5099948;28;20028;-63
2020/12/31 11:09:19;;;;;;;11.27;2.97;;;384.60;1587.20;;;;;;5097800;28;20045;-66
2020/12/31 11:11:45;;;;;;;6.78;2.50;;;409.70;1561.60;;;;;;5100267;28;20449;-64
2020/12/31 11:14:11;;;;;;;11.18;4.82;;;410.40;1510.40;;;;;;5098986;28;20024;-63
2020/12/31 11:16:36;;;;;;;15.90;7.47;;;410.10;1510.40;;;;;;5108027;28;20081;-66
2020/12/31 11:19:06;;;;;;;11.20;3.28;;;410.10;1536.00;;;;;;5119730;28;20024;-65
2020/12/31 11:21:32;;;;;;;8.73;3.80;;;410.00;1484.80;;;;;;5119014;28;20084;-64
2020/12/31 11:23:58;;;;;;;10.38;3.20;;;409.60;1536.00;;;;;;5119538;28;20031;-65
2020/12/31 11:26:25;;;;;;;7.53;3.35;;;409.70;1536.00;;;;;;5120393;28;20405;-63
2020/12/31 11:28:52;;;;;;;5.97;2.78;;;409.60;1510.40;;;;;;5119590;28;20114;-65
2020/12/31 11:31:27;;;;;;;5.57;2.47;;;410.00;1536.00;;;;;;5119497;28;20066;-62
2020/12/31 11:33:55;;;;;;;6.95;2.28;;;435.20;1459.20;;;;;;5119752;28;20441;-64
2020/12/31 11:36:21;;;;;;;7.35;3.08;;;435.50;1459.20;;;;;;5119497;28;20030;-63
2020/12/31 11:38:48;;;;;;;5.78;2.40;;;435.40;1433.60;;;;;;5119280;28;20024;-64
2020/12/31 11:41:14;;;;;;;4.03;2.10;;;435.20;1382.40;;;;;;5119224;28;20034;-66
2020/12/31 11:43:40;;;;;;;8.35;1.95;;;410.40;1408.00;;;;;;5118706;28;20054;-64
2020/12/31 11:46:06;;;;;;;9.07;1.85;;;410.50;1408.00;;;;;;5119427;28;20055;-63
2020/12/31 11:48:33;;;;;;;2.92;1.60;;;435.50;1382.40;;;;;;5114019;28;20100;-64
2020/12/31 11:51:00;;;;;;;10.10;2.28;;;410.50;1433.60;;;;;;5117509;28;20429;-64
2020/12/31 11:53:27;;;;;;;5.65;2.40;;;384.90;1459.20;;;;;;5118845;28;20019;-64
2020/12/31 11:55:54;;;;;;;6.15;2.17;;;384.80;1433.60;;;;;;5119743;28;20047;-65
2020/12/31 11:58:20;;;;;;;7.13;1.58;;;409.80;1510.40;;;;;;5116481;28;20019;-63
2020/12/31 12:00:47;;;;;;;15.80;7.57;;;384.60;1484.80;;;;;;5106794;28;20024;-64
2020/12/31 12:03:13;;;;;;;7.80;4.68;;;409.70;1510.40;;;;;;5108153;28;20069;-62
2020/12/31 12:05:39;;;;;;;11.90;4.55;;;410.10;1459.20;;;;;;5108252;28;20384;-62
2020/12/31 12:08:05;;;;;;;8.70;3.58;;;435.20;1433.60;;;;;;5106229;28;20031;-64
2020/12/31 12:10:31;;;;;;;13.27;4.18;;;435.80;1382.40;;;;;;5107880;28;20031;-64
2020/12/31 12:13:01;;;;;;;7.65;3.55;;;461.10;1356.80;;;;;;5108233;28;20027;-63
2020/12/31 12:15:27;;;;;;;5.93;2.55;;;461.70;1305.60;;;;;;5105353;28;20106;-62
2020/12/31 12:17:53;;;;;;;7.97;2.40;;;461.50;1280.00;;;;;;5107437;28;20123;-64
2020/12/31 12:20:19;;;;;;;9.70;3.70;;;461.40;1305.60;;;;;;5106611;28;20051;-62